sensor_id;sensor_type;location;lat;lon;timestamp;P1;durP1;ratioP1;P2;durP2;ratioP2
13163;SDS011;6647;53.688;10.746;2023-07-22T00:00:23;5.50;;;3.87;;
13163;SDS011;6647;53.688;10.746;2023-07-22T00:01:23;4.97;;;4.40;;
13163;SDS011;6647;53.688;10.746;2023-07-22T00:02:23;7.10;;;4.57;;
13163;SDS011;6647;53.688;10.746;2023-07-22T00:03:24;6.17;;;4.10;;
13163;SDS011;6647;53.688;10.746;2023-07-22T00:04:25;4.97;;;4.47;;
13163;SDS011;6647;53.688;10.746;2023-07-22T00:05:25;5.28;;;3.97;;
13163;SDS011;6647;53.688;10.746;2023-07-22T00:06:26;5.80;;;4.73;;
13163;SDS011;6647;53.688;10.746;2023-07-22T00:07:26;6.80;;;4.10;;
13163;SDS011;6647;53.688;10.746;2023-07-22T00:08:26;4.20;;;3.80;;
13163;SDS011;6647;53.688;10.746;2023-07-22T00:09:27;5.40;;;4.03;;
13163;SDS011;6647;53.688;10.746;2023-07-22T00:10:27;6.60;;;4.70;;
13163;SDS011;6647;53.688;10.746;2023-07-22T00:11:27;6.43;;;4.60;;
13163;SDS011;6647;53.688;10.746;2023-07-22T00:12:30;5.40;;;4.30;;
13163;SDS011;6647;53.688;10.746;2023-07-22T00:13:31;6.28;;;4.18;;
13163;SDS011;6647;53.688;10.746;2023-07-22T00:14:32;6.90;;;4.80;;
13163;SDS011;6647;53.688;10.746;2023-07-22T00:15:32;8.60;;;4.50;;
13163;SDS011;6647;53.688;10.746;2023-07-22T00:16:32;4.70;;;4.30;;
13163;SDS011;6647;53.688;10.746;2023-07-22T00:17:33;5.17;;;4.53;;
13163;SDS011;6647;53.688;10.746;2023-07-22T00:18:33;6.03;;;4.57;;
13163;SDS011;6647;53.688;10.746;2023-07-22T00:19:34;4.80;;;4.30;;
13163;SDS011;6647;53.688;10.746;2023-07-22T00:20:34;6.47;;;5.13;;
13163;SDS011;6647;53.688;10.746;2023-07-22T00:21:34;5.33;;;4.03;;
13163;SDS011;6647;53.688;10.746;2023-07-22T00:22:35;6.30;;;4.87;;
13163;SDS011;6647;53.688;10.746;2023-07-22T00:23:36;4.30;;;3.90;;
13163;SDS011;6647;53.688;10.746;2023-07-22T00:24:36;7.33;;;5.23;;
13163;SDS011;6647;53.688;10.746;2023-07-22T00:25:37;4.60;;;4.15;;
13163;SDS011;6647;53.688;10.746;2023-07-22T00:26:37;6.40;;;4.90;;
13163;SDS011;6647;53.688;10.746;2023-07-22T00:27:39;5.78;;;4.85;;
13163;SDS011;6647;53.688;10.746;2023-07-22T00:28:42;8.52;;;4.70;;
13163;SDS011;6647;53.688;10.746;2023-07-22T00:29:43;5.82;;;5.05;;
13163;SDS011;6647;53.688;10.746;2023-07-22T00:30:44;7.10;;;4.47;;
13163;SDS011;6647;53.688;10.746;2023-07-22T00:31:45;7.15;;;5.07;;
13163;SDS011;6647;53.688;10.746;2023-07-22T00:32:46;11.90;;;5.10;;
13163;SDS011;6647;53.688;10.746;2023-07-22T00:33:46;6.20;;;5.60;;
13163;SDS011;6647;53.688;10.746;2023-07-22T00:34:47;9.80;;;5.33;;
13163;SDS011;6647;53.688;10.746;2023-07-22T00:35:48;7.40;;;5.10;;
13163;SDS011;6647;53.688;10.746;2023-07-22T00:36:50;5.18;;;4.45;;
13163;SDS011;6647;53.688;10.746;2023-07-22T00:37:51;7.40;;;5.47;;
13163;SDS011;6647;53.688;10.746;2023-07-22T00:38:51;7.20;;;5.60;;
13163;SDS011;6647;53.688;10.746;2023-07-22T00:39:52;6.05;;;4.75;;
13163;SDS011;6647;53.688;10.746;2023-07-22T00:40:54;7.55;;;5.90;;
13163;SDS011;6647;53.688;10.746;2023-07-22T00:41:54;5.97;;;4.70;;
13163;SDS011;6647;53.688;10.746;2023-07-22T00:42:54;10.00;;;5.90;;
13163;SDS011;6647;53.688;10.746;2023-07-22T00:43:54;7.10;;;5.50;;
13163;SDS011;6647;53.688;10.746;2023-07-22T00:44:55;10.13;;;5.73;;
13163;SDS011;6647;53.688;10.746;2023-07-22T00:45:55;6.40;;;5.70;;
13163;SDS011;6647;53.688;10.746;2023-07-22T00:46:56;9.10;;;6.10;;
13163;SDS011;6647;53.688;10.746;2023-07-22T00:47:57;8.65;;;5.75;;
13163;SDS011;6647;53.688;10.746;2023-07-22T00:48:57;7.00;;;6.30;;
13163;SDS011;6647;53.688;10.746;2023-07-22T00:49:57;8.53;;;6.13;;
13163;SDS011;6647;53.688;10.746;2023-07-22T00:51:01;7.75;;;4.90;;
13163;SDS011;6647;53.688;10.746;2023-07-22T00:52:02;11.03;;;5.67;;
13163;SDS011;6647;53.688;10.746;2023-07-22T00:53:02;6.72;;;5.90;;
13163;SDS011;6647;53.688;10.746;2023-07-22T00:54:03;8.70;;;5.53;;
13163;SDS011;6647;53.688;10.746;2023-07-22T00:55:05;6.45;;;5.72;;
13163;SDS011;6647;53.688;10.746;2023-07-22T00:56:06;6.57;;;5.80;;
13163;SDS011;6647;53.688;10.746;2023-07-22T00:57:06;7.10;;;5.70;;
13163;SDS011;6647;53.688;10.746;2023-07-22T00:58:07;7.20;;;5.30;;
13163;SDS011;6647;53.688;10.746;2023-07-22T00:59:07;9.00;;;6.10;;
13163;SDS011;6647;53.688;10.746;2023-07-22T01:00:11;8.52;;;5.82;;
13163;SDS011;6647;53.688;10.746;2023-07-22T01:01:13;8.98;;;6.38;;
13163;SDS011;6647;53.688;10.746;2023-07-22T01:02:14;8.83;;;5.60;;
13163;SDS011;6647;53.688;10.746;2023-07-22T01:03:14;9.03;;;5.80;;
13163;SDS011;6647;53.688;10.746;2023-07-22T01:04:15;7.93;;;6.87;;
13163;SDS011;6647;53.688;10.746;2023-07-22T01:05:19;8.45;;;6.30;;
13163;SDS011;6647;53.688;10.746;2023-07-22T01:06:19;11.10;;;6.60;;
13163;SDS011;6647;53.688;10.746;2023-07-22T01:07:20;7.50;;;5.90;;
13163;SDS011;6647;53.688;10.746;2023-07-22T01:08:22;7.70;;;5.63;;
13163;SDS011;6647;53.688;10.746;2023-07-22T01:09:22;6.80;;;5.40;;
13163;SDS011;6647;53.688;10.746;2023-07-22T01:10:22;7.30;;;5.67;;
13163;SDS011;6647;53.688;10.746;2023-07-22T01:11:23;9.70;;;6.27;;
13163;SDS011;6647;53.688;10.746;2023-07-22T01:12:25;8.38;;;6.68;;
13163;SDS011;6647;53.688;10.746;2023-07-22T01:13:25;9.37;;;6.30;;
13163;SDS011;6647;53.688;10.746;2023-07-22T01:14:25;7.57;;;5.43;;
13163;SDS011;6647;53.688;10.746;2023-07-22T01:15:26;13.80;;;6.60;;
13163;SDS011;6647;53.688;10.746;2023-07-22T01:16:27;11.43;;;6.67;;
13163;SDS011;6647;53.688;10.746;2023-07-22T01:17:28;8.70;;;6.73;;
13163;SDS011;6647;53.688;10.746;2023-07-22T01:18:28;9.53;;;6.70;;
13163;SDS011;6647;53.688;10.746;2023-07-22T01:19:29;11.50;;;6.23;;
13163;SDS011;6647;53.688;10.746;2023-07-22T01:20:30;11.60;;;7.18;;
13163;SDS011;6647;53.688;10.746;2023-07-22T01:21:30;12.43;;;7.13;;
13163;SDS011;6647;53.688;10.746;2023-07-22T01:22:32;8.48;;;6.40;;
13163;SDS011;6647;53.688;10.746;2023-07-22T01:23:33;8.07;;;6.15;;
13163;SDS011;6647;53.688;10.746;2023-07-22T01:24:35;9.77;;;6.35;;
13163;SDS011;6647;53.688;10.746;2023-07-22T01:25:35;11.82;;;6.80;;
13163;SDS011;6647;53.688;10.746;2023-07-22T01:26:36;11.50;;;7.03;;
13163;SDS011;6647;53.688;10.746;2023-07-22T01:27:36;9.70;;;6.17;;
13163;SDS011;6647;53.688;10.746;2023-07-22T01:28:36;12.80;;;6.80;;
13163;SDS011;6647;53.688;10.746;2023-07-22T01:29:37;9.13;;;6.87;;
13163;SDS011;6647;53.688;10.746;2023-07-22T01:30:37;10.43;;;6.77;;
13163;SDS011;6647;53.688;10.746;2023-07-22T01:31:38;7.10;;;6.37;;
13163;SDS011;6647;53.688;10.746;2023-07-22T01:32:38;12.20;;;7.03;;
13163;SDS011;6647;53.688;10.746;2023-07-22T01:33:38;11.90;;;7.50;;
13163;SDS011;6647;53.688;10.746;2023-07-22T01:34:39;7.30;;;6.50;;
13163;SDS011;6647;53.688;10.746;2023-07-22T01:35:40;13.73;;;7.03;;
13163;SDS011;6647;53.688;10.746;2023-07-22T01:36:41;9.90;;;6.73;;
13163;SDS011;6647;53.688;10.746;2023-07-22T01:37:43;11.45;;;6.78;;
13163;SDS011;6647;53.688;10.746;2023-07-22T01:38:44;8.53;;;6.77;;
13163;SDS011;6647;53.688;10.746;2023-07-22T01:39:44;9.87;;;6.80;;
13163;SDS011;6647;53.688;10.746;2023-07-22T01:40:44;7.50;;;6.73;;
13163;SDS011;6647;53.688;10.746;2023-07-22T01:41:45;13.10;;;7.83;;
13163;SDS011;6647;53.688;10.746;2023-07-22T01:42:45;10.07;;;7.97;;
13163;SDS011;6647;53.688;10.746;2023-07-22T01:43:45;10.77;;;7.63;;
13163;SDS011;6647;53.688;10.746;2023-07-22T01:44:46;10.23;;;7.20;;
13163;SDS011;6647;53.688;10.746;2023-07-22T01:45:46;15.50;;;7.97;;
13163;SDS011;6647;53.688;10.746;2023-07-22T01:46:46;12.07;;;7.30;;
13163;SDS011;6647;53.688;10.746;2023-07-22T01:47:47;9.50;;;7.73;;
13163;SDS011;6647;53.688;10.746;2023-07-22T01:48:48;11.23;;;7.40;;
13163;SDS011;6647;53.688;10.746;2023-07-22T01:49:49;10.32;;;7.78;;
13163;SDS011;6647;53.688;10.746;2023-07-22T01:50:49;16.77;;;8.00;;
13163;SDS011;6647;53.688;10.746;2023-07-22T01:51:50;13.23;;;7.60;;
13163;SDS011;6647;53.688;10.746;2023-07-22T01:52:50;11.13;;;7.63;;
13163;SDS011;6647;53.688;10.746;2023-07-22T01:53:51;15.73;;;7.53;;
13163;SDS011;6647;53.688;10.746;2023-07-22T01:54:51;14.47;;;7.40;;
13163;SDS011;6647;53.688;10.746;2023-07-22T01:55:51;11.03;;;7.07;;
13163;SDS011;6647;53.688;10.746;2023-07-22T01:56:52;11.30;;;7.97;;
13163;SDS011;6647;53.688;10.746;2023-07-22T01:57:53;14.33;;;7.60;;
13163;SDS011;6647;53.688;10.746;2023-07-22T01:58:54;11.65;;;7.95;;
13163;SDS011;6647;53.688;10.746;2023-07-22T01:59:55;10.17;;;8.10;;
13163;SDS011;6647;53.688;10.746;2023-07-22T02:00:55;13.47;;;7.27;;
13163;SDS011;6647;53.688;10.746;2023-07-22T02:01:55;11.63;;;8.10;;
13163;SDS011;6647;53.688;10.746;2023-07-22T02:02:56;16.60;;;8.20;;
13163;SDS011;6647;53.688;10.746;2023-07-22T02:03:56;20.63;;;7.63;;
13163;SDS011;6647;53.688;10.746;2023-07-22T02:04:57;16.67;;;7.57;;
13163;SDS011;6647;53.688;10.746;2023-07-22T02:06:04;15.87;;;8.67;;
13163;SDS011;6647;53.688;10.746;2023-07-22T02:07:04;12.35;;;7.97;;
13163;SDS011;6647;53.688;10.746;2023-07-22T02:08:05;17.98;;;9.20;;
13163;SDS011;6647;53.688;10.746;2023-07-22T02:09:06;10.50;;;8.00;;
13163;SDS011;6647;53.688;10.746;2023-07-22T02:10:09;13.25;;;8.50;;
13163;SDS011;6647;53.688;10.746;2023-07-22T02:11:12;11.90;;;6.83;;
13163;SDS011;6647;53.688;10.746;2023-07-22T02:12:12;15.60;;;8.82;;
13163;SDS011;6647;53.688;10.746;2023-07-22T02:13:13;13.40;;;8.77;;
13163;SDS011;6647;53.688;10.746;2023-07-22T02:14:13;13.33;;;8.40;;
13163;SDS011;6647;53.688;10.746;2023-07-22T02:15:13;12.60;;;7.93;;
13163;SDS011;6647;53.688;10.746;2023-07-22T02:16:14;13.13;;;8.40;;
13163;SDS011;6647;53.688;10.746;2023-07-22T02:17:15;14.50;;;7.15;;
13163;SDS011;6647;53.688;10.746;2023-07-22T02:18:15;14.30;;;7.40;;
13163;SDS011;6647;53.688;10.746;2023-07-22T02:19:15;15.53;;;8.50;;
13163;SDS011;6647;53.688;10.746;2023-07-22T02:20:16;15.33;;;8.83;;
13163;SDS011;6647;53.688;10.746;2023-07-22T02:21:17;10.40;;;8.17;;
13163;SDS011;6647;53.688;10.746;2023-07-22T02:22:17;14.40;;;9.13;;
13163;SDS011;6647;53.688;10.746;2023-07-22T02:23:17;12.53;;;8.53;;
13163;SDS011;6647;53.688;10.746;2023-07-22T02:24:18;13.60;;;8.20;;
13163;SDS011;6647;53.688;10.746;2023-07-22T02:25:18;14.60;;;9.13;;
13163;SDS011;6647;53.688;10.746;2023-07-22T02:26:19;10.27;;;8.32;;
13163;SDS011;6647;53.688;10.746;2023-07-22T02:27:20;17.17;;;8.30;;
13163;SDS011;6647;53.688;10.746;2023-07-22T02:28:20;10.30;;;7.57;;
13163;SDS011;6647;53.688;10.746;2023-07-22T02:29:21;15.05;;;8.50;;
13163;SDS011;6647;53.688;10.746;2023-07-22T02:30:22;11.60;;;8.47;;
13163;SDS011;6647;53.688;10.746;2023-07-22T02:31:22;16.30;;;8.90;;
13163;SDS011;6647;53.688;10.746;2023-07-22T02:32:22;11.53;;;8.30;;
13163;SDS011;6647;53.688;10.746;2023-07-22T02:33:23;14.20;;;8.37;;
13163;SDS011;6647;53.688;10.746;2023-07-22T02:34:23;14.03;;;9.23;;
13163;SDS011;6647;53.688;10.746;2023-07-22T02:35:24;18.00;;;9.20;;
13163;SDS011;6647;53.688;10.746;2023-07-22T02:36:24;15.63;;;9.40;;
13163;SDS011;6647;53.688;10.746;2023-07-22T02:37:25;15.37;;;9.20;;
13163;SDS011;6647;53.688;10.746;2023-07-22T02:38:25;13.33;;;8.50;;
13163;SDS011;6647;53.688;10.746;2023-07-22T02:39:25;20.93;;;9.20;;
13163;SDS011;6647;53.688;10.746;2023-07-22T02:40:26;18.50;;;8.83;;
13163;SDS011;6647;53.688;10.746;2023-07-22T02:41:26;15.13;;;9.50;;
13163;SDS011;6647;53.688;10.746;2023-07-22T02:42:26;15.70;;;8.23;;
13163;SDS011;6647;53.688;10.746;2023-07-22T02:43:27;16.20;;;8.10;;
13163;SDS011;6647;53.688;10.746;2023-07-22T02:44:27;20.03;;;8.60;;
13163;SDS011;6647;53.688;10.746;2023-07-22T02:45:27;15.00;;;8.70;;
13163;SDS011;6647;53.688;10.746;2023-07-22T02:46:29;14.57;;;8.40;;
13163;SDS011;6647;53.688;10.746;2023-07-22T02:47:32;14.68;;;8.98;;
13163;SDS011;6647;53.688;10.746;2023-07-22T02:48:32;16.23;;;9.05;;
13163;SDS011;6647;53.688;10.746;2023-07-22T02:49:32;18.60;;;8.60;;
13163;SDS011;6647;53.688;10.746;2023-07-22T02:50:34;16.40;;;10.35;;
13163;SDS011;6647;53.688;10.746;2023-07-22T02:51:36;15.65;;;9.40;;
13163;SDS011;6647;53.688;10.746;2023-07-22T02:52:36;18.90;;;9.90;;
13163;SDS011;6647;53.688;10.746;2023-07-22T02:53:37;13.63;;;8.90;;
13163;SDS011;6647;53.688;10.746;2023-07-22T02:54:39;13.80;;;8.63;;
13163;SDS011;6647;53.688;10.746;2023-07-22T02:55:41;19.30;;;8.60;;
13163;SDS011;6647;53.688;10.746;2023-07-22T02:56:42;19.08;;;10.23;;
13163;SDS011;6647;53.688;10.746;2023-07-22T02:57:42;16.23;;;9.70;;
13163;SDS011;6647;53.688;10.746;2023-07-22T02:58:42;12.30;;;9.00;;
13163;SDS011;6647;53.688;10.746;2023-07-22T02:59:43;16.83;;;9.30;;
13163;SDS011;6647;53.688;10.746;2023-07-22T03:00:43;16.20;;;8.73;;
13163;SDS011;6647;53.688;10.746;2023-07-22T03:01:44;15.53;;;9.20;;
13163;SDS011;6647;53.688;10.746;2023-07-22T03:02:44;14.57;;;10.10;;
13163;SDS011;6647;53.688;10.746;2023-07-22T03:03:45;15.10;;;9.03;;
13163;SDS011;6647;53.688;10.746;2023-07-22T03:04:47;23.88;;;9.25;;
13163;SDS011;6647;53.688;10.746;2023-07-22T03:05:47;14.50;;;8.50;;
13163;SDS011;6647;53.688;10.746;2023-07-22T03:06:48;18.63;;;8.97;;
13163;SDS011;6647;53.688;10.746;2023-07-22T03:07:48;18.40;;;9.20;;
13163;SDS011;6647;53.688;10.746;2023-07-22T03:08:48;18.73;;;10.43;;
13163;SDS011;6647;53.688;10.746;2023-07-22T03:09:48;13.77;;;8.73;;
13163;SDS011;6647;53.688;10.746;2023-07-22T03:10:49;19.77;;;9.37;;
13163;SDS011;6647;53.688;10.746;2023-07-22T03:11:50;17.33;;;8.82;;
13163;SDS011;6647;53.688;10.746;2023-07-22T03:12:51;15.30;;;8.83;;
13163;SDS011;6647;53.688;10.746;2023-07-22T03:13:55;14.60;;;9.15;;
13163;SDS011;6647;53.688;10.746;2023-07-22T03:14:55;18.87;;;8.33;;
13163;SDS011;6647;53.688;10.746;2023-07-22T03:15:56;14.43;;;8.17;;
13163;SDS011;6647;53.688;10.746;2023-07-22T03:16:57;17.63;;;9.00;;
13163;SDS011;6647;53.688;10.746;2023-07-22T03:17:58;16.02;;;9.80;;
13163;SDS011;6647;53.688;10.746;2023-07-22T03:18:59;17.70;;;9.30;;
13163;SDS011;6647;53.688;10.746;2023-07-22T03:19:59;15.63;;;8.90;;
13163;SDS011;6647;53.688;10.746;2023-07-22T03:21:01;16.60;;;9.70;;
13163;SDS011;6647;53.688;10.746;2023-07-22T03:22:01;12.03;;;7.60;;
13163;SDS011;6647;53.688;10.746;2023-07-22T03:23:03;16.35;;;9.65;;
13163;SDS011;6647;53.688;10.746;2023-07-22T03:24:05;14.07;;;8.77;;
13163;SDS011;6647;53.688;10.746;2023-07-22T03:25:06;14.97;;;8.50;;
13163;SDS011;6647;53.688;10.746;2023-07-22T03:26:10;18.63;;;9.55;;
13163;SDS011;6647;53.688;10.746;2023-07-22T03:27:11;15.70;;;9.60;;
13163;SDS011;6647;53.688;10.746;2023-07-22T03:28:11;15.15;;;8.43;;
13163;SDS011;6647;53.688;10.746;2023-07-22T03:29:12;16.93;;;9.17;;
13163;SDS011;6647;53.688;10.746;2023-07-22T03:30:14;14.73;;;9.00;;
13163;SDS011;6647;53.688;10.746;2023-07-22T03:31:15;22.20;;;9.35;;
13163;SDS011;6647;53.688;10.746;2023-07-22T03:32:15;14.17;;;9.10;;
13163;SDS011;6647;53.688;10.746;2023-07-22T03:33:16;21.10;;;9.10;;
13163;SDS011;6647;53.688;10.746;2023-07-22T03:34:17;19.13;;;9.20;;
13163;SDS011;6647;53.688;10.746;2023-07-22T03:35:17;17.97;;;9.93;;
13163;SDS011;6647;53.688;10.746;2023-07-22T03:36:17;13.93;;;8.57;;
13163;SDS011;6647;53.688;10.746;2023-07-22T03:37:18;13.70;;;8.97;;
13163;SDS011;6647;53.688;10.746;2023-07-22T03:38:20;14.05;;;10.20;;
13163;SDS011;6647;53.688;10.746;2023-07-22T03:39:21;15.60;;;9.50;;
13163;SDS011;6647;53.688;10.746;2023-07-22T03:40:21;21.90;;;9.10;;
13163;SDS011;6647;53.688;10.746;2023-07-22T03:41:30;20.63;;;8.98;;
13163;SDS011;6647;53.688;10.746;2023-07-22T03:42:31;18.70;;;8.90;;
13163;SDS011;6647;53.688;10.746;2023-07-22T03:43:31;17.27;;;9.20;;
13163;SDS011;6647;53.688;10.746;2023-07-22T03:44:32;15.43;;;9.10;;
13163;SDS011;6647;53.688;10.746;2023-07-22T03:45:33;20.13;;;8.53;;
13163;SDS011;6647;53.688;10.746;2023-07-22T03:46:34;12.60;;;8.17;;
13163;SDS011;6647;53.688;10.746;2023-07-22T03:47:34;13.33;;;9.03;;
13163;SDS011;6647;53.688;10.746;2023-07-22T03:48:35;15.38;;;9.20;;
13163;SDS011;6647;53.688;10.746;2023-07-22T03:49:35;17.47;;;9.93;;
13163;SDS011;6647;53.688;10.746;2023-07-22T03:50:36;18.50;;;9.50;;
13163;SDS011;6647;53.688;10.746;2023-07-22T03:51:36;14.00;;;9.00;;
13163;SDS011;6647;53.688;10.746;2023-07-22T03:52:36;16.50;;;10.17;;
13163;SDS011;6647;53.688;10.746;2023-07-22T03:53:37;14.97;;;9.17;;
13163;SDS011;6647;53.688;10.746;2023-07-22T03:54:37;14.70;;;8.47;;
13163;SDS011;6647;53.688;10.746;2023-07-22T03:55:37;17.30;;;9.27;;
13163;SDS011;6647;53.688;10.746;2023-07-22T03:56:39;13.57;;;8.37;;
13163;SDS011;6647;53.688;10.746;2023-07-22T03:57:40;12.23;;;8.65;;
13163;SDS011;6647;53.688;10.746;2023-07-22T03:58:41;13.87;;;8.70;;
13163;SDS011;6647;53.688;10.746;2023-07-22T03:59:41;19.00;;;8.90;;
13163;SDS011;6647;53.688;10.746;2023-07-22T04:00:41;17.87;;;8.57;;
13163;SDS011;6647;53.688;10.746;2023-07-22T04:01:42;21.07;;;9.77;;
13163;SDS011;6647;53.688;10.746;2023-07-22T04:02:43;22.48;;;8.88;;
13163;SDS011;6647;53.688;10.746;2023-07-22T04:03:43;16.07;;;8.60;;
13163;SDS011;6647;53.688;10.746;2023-07-22T04:04:44;14.80;;;8.60;;
13163;SDS011;6647;53.688;10.746;2023-07-22T04:05:44;20.93;;;8.57;;
13163;SDS011;6647;53.688;10.746;2023-07-22T04:06:54;20.77;;;10.02;;
13163;SDS011;6647;53.688;10.746;2023-07-22T04:07:54;13.47;;;8.50;;
13163;SDS011;6647;53.688;10.746;2023-07-22T04:08:55;14.10;;;8.90;;
13163;SDS011;6647;53.688;10.746;2023-07-22T04:09:56;17.35;;;8.27;;
13163;SDS011;6647;53.688;10.746;2023-07-22T04:11:00;19.08;;;9.05;;
13163;SDS011;6647;53.688;10.746;2023-07-22T04:12:01;19.63;;;9.60;;
13163;SDS011;6647;53.688;10.746;2023-07-22T04:13:05;13.95;;;8.63;;
13163;SDS011;6647;53.688;10.746;2023-07-22T04:14:07;13.68;;;7.68;;
13163;SDS011;6647;53.688;10.746;2023-07-22T04:15:10;17.33;;;9.02;;
13163;SDS011;6647;53.688;10.746;2023-07-22T04:16:11;21.27;;;10.13;;
13163;SDS011;6647;53.688;10.746;2023-07-22T04:17:12;20.20;;;8.57;;
13163;SDS011;6647;53.688;10.746;2023-07-22T04:18:14;19.58;;;9.05;;
13163;SDS011;6647;53.688;10.746;2023-07-22T04:19:15;16.23;;;9.57;;
13163;SDS011;6647;53.688;10.746;2023-07-22T04:20:16;22.05;;;9.23;;
13163;SDS011;6647;53.688;10.746;2023-07-22T04:21:18;24.95;;;9.07;;
13163;SDS011;6647;53.688;10.746;2023-07-22T04:22:18;13.33;;;8.80;;
13163;SDS011;6647;53.688;10.746;2023-07-22T04:23:21;17.40;;;9.27;;
13163;SDS011;6647;53.688;10.746;2023-07-22T04:24:21;16.73;;;9.50;;
13163;SDS011;6647;53.688;10.746;2023-07-22T04:25:22;18.63;;;9.10;;
13163;SDS011;6647;53.688;10.746;2023-07-22T04:26:22;21.07;;;9.50;;
13163;SDS011;6647;53.688;10.746;2023-07-22T04:27:22;15.53;;;8.93;;
13163;SDS011;6647;53.688;10.746;2023-07-22T04:28:23;12.87;;;8.70;;
13163;SDS011;6647;53.688;10.746;2023-07-22T04:29:25;13.38;;;8.23;;
13163;SDS011;6647;53.688;10.746;2023-07-22T04:30:25;20.53;;;8.50;;
13163;SDS011;6647;53.688;10.746;2023-07-22T04:31:26;21.20;;;9.30;;
13163;SDS011;6647;53.688;10.746;2023-07-22T04:32:27;22.33;;;9.30;;
13163;SDS011;6647;53.688;10.746;2023-07-22T04:33:28;11.05;;;7.55;;
13163;SDS011;6647;53.688;10.746;2023-07-22T04:34:31;14.43;;;9.20;;
13163;SDS011;6647;53.688;10.746;2023-07-22T04:35:32;14.23;;;7.85;;
13163;SDS011;6647;53.688;10.746;2023-07-22T04:36:33;18.90;;;8.30;;
13163;SDS011;6647;53.688;10.746;2023-07-22T04:37:33;20.90;;;10.03;;
13163;SDS011;6647;53.688;10.746;2023-07-22T04:38:34;18.83;;;9.40;;
13163;SDS011;6647;53.688;10.746;2023-07-22T04:39:34;20.77;;;9.40;;
13163;SDS011;6647;53.688;10.746;2023-07-22T04:40:34;17.73;;;8.83;;
13163;SDS011;6647;53.688;10.746;2023-07-22T04:41:35;19.70;;;10.20;;
13163;SDS011;6647;53.688;10.746;2023-07-22T04:42:35;19.87;;;9.20;;
13163;SDS011;6647;53.688;10.746;2023-07-22T04:43:36;18.67;;;9.93;;
13163;SDS011;6647;53.688;10.746;2023-07-22T04:44:37;20.67;;;10.00;;
13163;SDS011;6647;53.688;10.746;2023-07-22T04:45:37;18.43;;;10.00;;
13163;SDS011;6647;53.688;10.746;2023-07-22T04:46:40;17.58;;;10.35;;
13163;SDS011;6647;53.688;10.746;2023-07-22T04:47:40;18.20;;;9.43;;
13163;SDS011;6647;53.688;10.746;2023-07-22T04:48:44;23.77;;;9.90;;
13163;SDS011;6647;53.688;10.746;2023-07-22T04:49:45;18.00;;;9.85;;
13163;SDS011;6647;53.688;10.746;2023-07-22T04:50:46;18.83;;;10.38;;
13163;SDS011;6647;53.688;10.746;2023-07-22T04:51:46;12.93;;;9.70;;
13163;SDS011;6647;53.688;10.746;2023-07-22T04:52:47;21.27;;;9.13;;
13163;SDS011;6647;53.688;10.746;2023-07-22T04:53:48;18.07;;;10.07;;
13163;SDS011;6647;53.688;10.746;2023-07-22T04:54:48;17.80;;;8.63;;
13163;SDS011;6647;53.688;10.746;2023-07-22T04:55:49;14.93;;;9.10;;
13163;SDS011;6647;53.688;10.746;2023-07-22T04:56:50;23.97;;;9.57;;
13163;SDS011;6647;53.688;10.746;2023-07-22T04:57:50;18.17;;;9.10;;
13163;SDS011;6647;53.688;10.746;2023-07-22T04:58:51;19.70;;;9.83;;
13163;SDS011;6647;53.688;10.746;2023-07-22T04:59:52;16.20;;;10.18;;
13163;SDS011;6647;53.688;10.746;2023-07-22T05:00:54;15.70;;;9.57;;
13163;SDS011;6647;53.688;10.746;2023-07-22T05:01:54;21.13;;;10.10;;
13163;SDS011;6647;53.688;10.746;2023-07-22T05:02:54;17.33;;;9.10;;
13163;SDS011;6647;53.688;10.746;2023-07-22T05:03:56;17.50;;;10.10;;
13163;SDS011;6647;53.688;10.746;2023-07-22T05:04:57;16.88;;;9.68;;
13163;SDS011;6647;53.688;10.746;2023-07-22T05:05:58;19.40;;;9.93;;
13163;SDS011;6647;53.688;10.746;2023-07-22T05:06:58;15.13;;;9.57;;
13163;SDS011;6647;53.688;10.746;2023-07-22T05:07:58;22.93;;;10.17;;
13163;SDS011;6647;53.688;10.746;2023-07-22T05:08:59;18.63;;;10.00;;
13163;SDS011;6647;53.688;10.746;2023-07-22T05:10:00;17.00;;;9.48;;
13163;SDS011;6647;53.688;10.746;2023-07-22T05:11:00;15.07;;;9.17;;
13163;SDS011;6647;53.688;10.746;2023-07-22T05:12:01;14.87;;;8.50;;
13163;SDS011;6647;53.688;10.746;2023-07-22T05:13:01;14.93;;;9.50;;
13163;SDS011;6647;53.688;10.746;2023-07-22T05:14:02;15.70;;;9.37;;
13163;SDS011;6647;53.688;10.746;2023-07-22T05:15:02;15.20;;;9.57;;
13163;SDS011;6647;53.688;10.746;2023-07-22T05:16:03;15.10;;;9.40;;
13163;SDS011;6647;53.688;10.746;2023-07-22T05:17:04;16.10;;;9.20;;
13163;SDS011;6647;53.688;10.746;2023-07-22T05:18:04;20.93;;;8.50;;
13163;SDS011;6647;53.688;10.746;2023-07-22T05:19:05;16.13;;;8.60;;
13163;SDS011;6647;53.688;10.746;2023-07-22T05:20:09;17.65;;;9.63;;
13163;SDS011;6647;53.688;10.746;2023-07-22T05:21:10;18.23;;;9.43;;
13163;SDS011;6647;53.688;10.746;2023-07-22T05:22:10;21.47;;;9.50;;
13163;SDS011;6647;53.688;10.746;2023-07-22T05:23:10;16.47;;;9.00;;
13163;SDS011;6647;53.688;10.746;2023-07-22T05:24:11;16.20;;;8.47;;
13163;SDS011;6647;53.688;10.746;2023-07-22T05:25:11;20.50;;;8.90;;
13163;SDS011;6647;53.688;10.746;2023-07-22T05:26:12;15.18;;;9.00;;
13163;SDS011;6647;53.688;10.746;2023-07-22T05:27:14;15.93;;;9.55;;
13163;SDS011;6647;53.688;10.746;2023-07-22T05:28:15;17.20;;;8.03;;
13163;SDS011;6647;53.688;10.746;2023-07-22T05:29:15;18.60;;;8.70;;
13163;SDS011;6647;53.688;10.746;2023-07-22T05:30:15;21.30;;;9.87;;
13163;SDS011;6647;53.688;10.746;2023-07-22T05:31:16;16.77;;;9.48;;
13163;SDS011;6647;53.688;10.746;2023-07-22T05:32:17;12.50;;;7.50;;
13163;SDS011;6647;53.688;10.746;2023-07-22T05:33:17;16.50;;;9.30;;
13163;SDS011;6647;53.688;10.746;2023-07-22T05:34:17;15.97;;;8.47;;
13163;SDS011;6647;53.688;10.746;2023-07-22T05:35:18;17.10;;;8.77;;
13163;SDS011;6647;53.688;10.746;2023-07-22T05:36:19;13.53;;;9.23;;
13163;SDS011;6647;53.688;10.746;2023-07-22T05:37:19;16.23;;;8.77;;
13163;SDS011;6647;53.688;10.746;2023-07-22T05:38:19;19.17;;;8.70;;
13163;SDS011;6647;53.688;10.746;2023-07-22T05:39:19;15.90;;;8.80;;
13163;SDS011;6647;53.688;10.746;2023-07-22T05:40:20;13.07;;;8.83;;
13163;SDS011;6647;53.688;10.746;2023-07-22T05:41:20;17.67;;;8.47;;
13163;SDS011;6647;53.688;10.746;2023-07-22T05:42:21;9.80;;;7.80;;
13163;SDS011;6647;53.688;10.746;2023-07-22T05:43:22;14.02;;;8.65;;
13163;SDS011;6647;53.688;10.746;2023-07-22T05:44:22;14.60;;;8.57;;
13163;SDS011;6647;53.688;10.746;2023-07-22T05:45:23;11.23;;;8.70;;
13163;SDS011;6647;53.688;10.746;2023-07-22T05:46:23;12.60;;;7.73;;
13163;SDS011;6647;53.688;10.746;2023-07-22T05:47:23;10.70;;;8.03;;
13163;SDS011;6647;53.688;10.746;2023-07-22T05:48:24;16.40;;;8.80;;
13163;SDS011;6647;53.688;10.746;2023-07-22T05:49:24;13.03;;;8.20;;
13163;SDS011;6647;53.688;10.746;2023-07-22T05:50:25;11.63;;;7.93;;
13163;SDS011;6647;53.688;10.746;2023-07-22T05:51:28;16.40;;;8.05;;
13163;SDS011;6647;53.688;10.746;2023-07-22T05:52:28;16.40;;;8.20;;
13163;SDS011;6647;53.688;10.746;2023-07-22T05:53:28;15.10;;;8.20;;
13163;SDS011;6647;53.688;10.746;2023-07-22T05:54:29;10.50;;;7.33;;
13163;SDS011;6647;53.688;10.746;2023-07-22T05:55:29;14.50;;;7.50;;
13163;SDS011;6647;53.688;10.746;2023-07-22T05:56:30;12.25;;;7.95;;
13163;SDS011;6647;53.688;10.746;2023-07-22T05:57:31;11.37;;;7.07;;
13163;SDS011;6647;53.688;10.746;2023-07-22T05:58:31;16.43;;;8.67;;
13163;SDS011;6647;53.688;10.746;2023-07-22T05:59:33;10.10;;;7.15;;
13163;SDS011;6647;53.688;10.746;2023-07-22T06:00:36;13.55;;;7.40;;
13163;SDS011;6647;53.688;10.746;2023-07-22T06:01:37;13.18;;;7.50;;